Ana Sayfa
METAR-TAF:

METAR-TAF

Havaalanları :

Middle Peninsula Regional Airport

West Point, Virginia, Amerika Birleşik Devletleri

Enlem: 37-31-16N, Boylam: 076-45-52W, yükseklik: 7 m

Güncel hava durumu gözlemi

Rapor saat 09:55 UTC de 14 dakika önce yapıldı.
Rüzgar güneydoğudan 3 kt
Sıcaklık 9°C
Nem 100%
Basınç 1013 hPa
Görüş mesafesi: 3.2 km
200 ft yükseklikte parçalı çok bulutlu
700 ft yükseklikte çok bulutlu

METAR: KFYJ 250955Z AUTO 13003KT 2SM BKN002 OVC007 09/09 A2990 RMK AO1 P0002 T00860086

Saat: 05:09 (10:09 UTC)


TAF: eksik

4.000'den fazla havaalanı için hava durumu gözlemleri ve tahminleri (METAR ve TAF raporları).

Kullanılabilir istasyonlar harita üzerinde sarı ve kırmızı noktalarla gösterilir.

İstasyonun adını görmek için fareyi noktanın üzerinde gezdirin.

Sonrasında hava gözlem ve tahminlerini görmek için tıklayın.

Haritayı değiştirmek için: yaklaştırmak için siyah artı işaretli yeşil düğmeye ve uzaklaştırmak için de eksi işaretli düğmeye hızla tıklayın; bitişik haritalar için yeşil okları kullanın.


METAR-TAF: